createdAt,value
2018-11-28T00:00:04.564Z,7.57
2018-11-28T00:02:39.597Z,8.30
2018-11-28T00:05:16.274Z,8.00
2018-11-28T00:07:50.480Z,8.40
2018-11-28T00:10:25.010Z,8.17
2018-11-28T00:12:59.527Z,8.10
2018-11-28T00:15:34.560Z,8.30
2018-11-28T00:18:09.596Z,8.77
2018-11-28T00:20:45.011Z,8.00
2018-11-28T00:23:20.484Z,8.50
2018-11-28T00:25:58.796Z,8.07
2018-11-28T00:28:29.317Z,8.00
2018-11-28T00:31:04.556Z,7.67
2018-11-28T00:33:39.386Z,8.43
2018-11-28T00:36:14.622Z,8.53
2018-11-28T00:38:50.474Z,9.00
2018-11-28T00:41:25.508Z,8.30
2018-11-28T00:43:59.517Z,9.53
2018-11-28T00:46:34.549Z,9.20
2018-11-28T00:49:09.584Z,9.10
2018-11-28T00:51:44.004Z,9.50
2018-11-28T00:54:18.636Z,10.33
2018-11-28T00:56:52.637Z,10.50
2018-11-28T00:59:26.644Z,10.73
2018-11-28T01:02:02.705Z,9.90
2018-11-28T01:04:37.529Z,10.37
2018-11-28T01:07:12.361Z,10.50
2018-11-28T01:09:46.786Z,10.27
2018-11-28T01:12:20.587Z,9.70
2018-11-28T01:14:54.597Z,9.73
2018-11-28T01:17:28.609Z,10.03
2018-11-28T01:20:03.637Z,10.80
2018-11-28T01:22:38.878Z,9.77
2018-11-28T01:25:14.527Z,9.20
2018-11-28T01:27:51.606Z,9.70
2018-11-28T01:30:28.483Z,8.87
2018-11-28T01:33:04.336Z,8.93
2018-11-28T01:35:38.347Z,9.23
2018-11-28T01:38:13.379Z,9.60
2018-11-28T01:40:48.617Z,9.80
2018-11-28T01:43:23.032Z,8.87
2018-11-28T01:45:57.658Z,9.27
2018-11-28T01:48:31.668Z,9.37
2018-11-28T01:51:05.676Z,10.47
2018-11-28T01:53:40.510Z,9.60
2018-11-28T01:56:13.697Z,10.60
2018-11-28T01:58:47.505Z,10.50
2018-11-28T02:01:22.537Z,10.40
2018-11-28T02:03:58.385Z,10.60
2018-11-28T02:06:33.626Z,10.53
2018-11-28T02:09:09.681Z,10.87
2018-11-28T02:11:43.694Z,10.57
2018-11-28T02:14:17.909Z,10.70
2018-11-28T02:16:54.371Z,11.30
2018-11-28T02:19:29.615Z,10.70
2018-11-28T02:22:04.648Z,10.70
2018-11-28T02:24:39.680Z,10.47
2018-11-28T02:27:13.689Z,10.47
2018-11-28T02:29:47.699Z,10.53
2018-11-28T02:32:23.551Z,10.60
2018-11-28T02:34:57.773Z,11.23
2018-11-28T02:37:31.571Z,10.10
2018-11-28T02:40:06.809Z,10.20
2018-11-28T02:42:41.638Z,11.43
2018-11-28T02:45:18.719Z,10.93
2018-11-28T02:47:53.343Z,10.80
2018-11-28T02:50:28.583Z,11.73
2018-11-28T02:53:03.408Z,11.47
2018-11-28T02:55:38.648Z,9.13
2018-11-28T02:58:13.682Z,9.77
2018-11-28T03:00:48.711Z,9.37
2018-11-28T03:03:22.727Z,11.43
2018-11-28T03:05:58.578Z,10.90
2018-11-28T03:08:34.635Z,11.80
2018-11-28T03:11:09.669Z,11.63
2018-11-28T03:13:44.707Z,11.40
2018-11-28T03:16:22.600Z,11.53
2018-11-28T03:18:57.635Z,12.37
2018-11-28T03:21:31.644Z,11.80
2018-11-28T03:24:05.652Z,12.90
2018-11-28T03:26:40.686Z,11.77
2018-11-28T03:29:14.697Z,10.97
2018-11-28T03:31:49.729Z,11.43
2018-11-28T03:34:24.969Z,11.83
2018-11-28T03:36:59.594Z,11.77
2018-11-28T03:39:34.629Z,11.27
2018-11-28T03:42:09.659Z,13.13
2018-11-28T03:44:44.691Z,12.40
2018-11-28T03:47:18.705Z,12.90
2018-11-28T03:49:52.713Z,11.97
2018-11-28T03:52:26.721Z,13.13
2018-11-28T03:55:00.731Z,12.73
2018-11-28T03:57:34.741Z,12.70
2018-11-28T04:00:10.592Z,13.07
2018-11-28T04:02:44.604Z,13.37
2018-11-28T04:05:19.434Z,12.77
2018-11-28T04:07:53.648Z,13.10
2018-11-28T04:10:27.662Z,13.00
2018-11-28T04:13:03.713Z,12.37
2018-11-28T04:15:37.724Z,12.57
2018-11-28T04:18:12.554Z,12.10
2018-11-28T04:20:47.790Z,12.13
2018-11-28T04:23:21.595Z,12.23
2018-11-28T04:25:56.629Z,12.63
2018-11-28T04:28:32.686Z,13.23
2018-11-28T04:31:07.716Z,11.80
2018-11-28T04:33:42.558Z,12.20
2018-11-28T04:36:15.944Z,11.80
2018-11-28T04:38:49.543Z,11.17
2018-11-28T04:41:25.600Z,11.00
2018-11-28T04:44:00.632Z,10.60
2018-11-28T04:46:35.667Z,11.47
2018-11-28T04:49:10.701Z,10.70
2018-11-28T04:51:46.551Z,11.33
2018-11-28T04:54:22.821Z,10.00
2018-11-28T04:56:56.617Z,9.27
2018-11-28T04:59:30.631Z,9.70
2018-11-28T05:02:06.236Z,9.73
2018-11-28T05:04:40.907Z,9.73
2018-11-28T05:07:36.835Z,9.07
2018-11-28T05:10:14.927Z,9.13
2018-11-28T05:12:50.795Z,8.93
2018-11-28T05:15:26.840Z,9.33
2018-11-28T05:18:01.877Z,8.90
2018-11-28T05:20:41.330Z,8.97
2018-11-28T05:23:15.833Z,9.40
2018-11-28T05:25:51.688Z,9.37
2018-11-28T05:28:26.925Z,9.37
2018-11-28T05:31:01.960Z,9.93
2018-11-28T05:33:37.196Z,8.37
2018-11-28T05:36:12.843Z,9.30
2018-11-28T05:38:48.900Z,9.60
2018-11-28T05:41:23.932Z,9.27
2018-11-28T05:44:00.813Z,10.17
2018-11-28T05:46:35.841Z,9.13
2018-11-28T05:49:15.116Z,10.30
2018-11-28T05:51:47.961Z,10.33
2018-11-28T05:54:22.348Z,10.10
2018-11-28T05:56:58.846Z,10.27
2018-11-28T05:59:34.904Z,9.60
2018-11-28T06:02:10.761Z,9.67
2018-11-28T06:04:46.815Z,9.87
2018-11-28T06:07:21.850Z,10.17
2018-11-28T06:27:13.782Z,10.53
2018-11-28T06:29:47.792Z,11.30
2018-11-28T06:32:23.849Z,11.60
2018-11-28T06:35:02.977Z,11.30
2018-11-28T06:55:11.912Z,12.43
2018-11-28T07:17:50.763Z,12.27
2018-11-28T07:20:27.399Z,12.37
2018-11-28T07:23:03.899Z,13.13
2018-11-28T07:43:11.192Z,12.70
2018-11-28T07:45:55.045Z,12.80
2018-11-28T08:08:40.027Z,12.33
2018-11-28T08:11:16.465Z,13.20
2018-11-28T08:13:56.033Z,14.73
2018-11-28T08:16:31.271Z,13.73
2018-11-28T08:36:27.109Z,12.07
2018-11-28T08:39:01.762Z,11.60
2018-11-28T08:58:54.070Z,13.47
2018-11-28T09:01:30.126Z,12.87
2018-11-28T09:04:04.135Z,13.80
2018-11-28T09:23:55.732Z,14.50
2018-11-28T09:26:41.344Z,13.53
2018-11-28T09:29:18.014Z,14.50
2018-11-28T09:31:59.596Z,13.57
2018-11-28T09:34:35.499Z,14.70
2018-11-28T09:54:27.390Z,13.03
2018-11-28T09:57:06.111Z,12.77
2018-11-28T10:17:05.423Z,13.37
2018-11-28T10:37:05.142Z,12.87
2018-11-28T10:39:39.145Z,13.60
2018-11-28T10:59:31.520Z,14.80
2018-11-28T11:02:11.232Z,14.90
2018-11-28T11:22:09.046Z,13.80
2018-11-28T11:42:09.030Z,12.63
2018-11-28T11:44:45.295Z,13.30
2018-11-28T11:47:20.532Z,13.63
2018-11-28T12:07:13.291Z,12.87
2018-11-28T12:29:50.293Z,11.30
2018-11-28T12:32:25.122Z,12.83
2018-11-28T12:34:58.311Z,12.27
2018-11-28T12:54:48.199Z,13.33
2018-11-28T12:57:22.616Z,12.13
2018-11-28T12:59:57.240Z,13.13
2018-11-28T13:02:32.683Z,12.77
2018-11-28T13:05:08.535Z,12.80
2018-11-28T13:25:05.591Z,11.27
2018-11-28T13:27:39.191Z,12.30
2018-11-28T13:30:18.317Z,12.53
2018-11-28T13:32:53.147Z,12.60
2018-11-28T13:35:33.096Z,11.53
2018-11-28T13:55:42.580Z,12.47
2018-11-28T13:58:19.318Z,13.47
2018-11-28T14:18:17.195Z,12.57
2018-11-28T14:20:54.270Z,12.47
2018-11-28T14:23:30.129Z,13.03
2018-11-28T14:43:28.208Z,12.37
2018-11-28T14:46:10.408Z,12.97
2018-11-28T15:06:06.449Z,12.30
2018-11-28T15:08:41.268Z,12.40
2018-11-28T15:11:18.348Z,13.57
2018-11-28T15:31:11.310Z,12.47
2018-11-28T15:33:49.413Z,16.57
2018-11-28T15:53:48.358Z,15.20
2018-11-28T15:56:29.975Z,14.40
2018-11-28T15:59:06.368Z,14.87
2018-11-28T16:01:45.291Z,14.30
2018-11-28T16:04:23.193Z,14.93
2018-11-28T16:06:59.250Z,15.33
2018-11-28T16:09:39.200Z,14.20
2018-11-28T16:12:15.462Z,15.23
2018-11-28T16:14:58.275Z,18.33
2018-11-28T16:17:35.360Z,15.57
2018-11-28T16:20:13.673Z,16.50
2018-11-28T16:22:50.342Z,16.87
2018-11-28T16:25:31.107Z,14.77
2018-11-28T16:28:06.349Z,14.10
2018-11-28T16:30:41.382Z,14.53
2018-11-28T16:33:18.052Z,16.43
2018-11-28T16:35:54.771Z,14.63
2018-11-28T16:38:30.371Z,12.87
2018-11-28T16:41:05.608Z,15.23
2018-11-28T16:43:45.564Z,14.77
2018-11-28T16:46:26.122Z,13.30
2018-11-28T16:49:01.361Z,15.50
2018-11-28T16:51:39.264Z,13.57
2018-11-28T16:54:13.291Z,14.17
2018-11-28T16:56:48.303Z,15.17
2018-11-28T16:59:32.553Z,17.13
2018-11-28T17:02:08.407Z,18.80
2018-11-28T17:04:44.261Z,17.40
2018-11-28T17:07:19.292Z,16.77
2018-11-28T17:09:57.196Z,15.63
2018-11-28T17:12:33.252Z,14.90
2018-11-28T17:15:10.333Z,14.17
2018-11-28T17:17:45.367Z,14.20
2018-11-28T17:20:26.336Z,13.47
2018-11-28T17:23:03.623Z,13.67
2018-11-28T17:25:37.224Z,13.27
2018-11-28T17:28:13.282Z,30.93
2018-11-28T17:30:51.833Z,22.23
2018-11-28T17:33:33.381Z,17.87
2018-11-28T17:36:12.756Z,21.00
2018-11-28T17:38:52.107Z,22.17
2018-11-28T17:41:30.158Z,18.97
2018-11-28T17:44:13.384Z,16.70
2018-11-28T17:46:55.398Z,15.00
2018-11-28T17:49:30.798Z,16.07
2018-11-28T17:52:06.269Z,14.40
2018-11-28T17:54:46.630Z,15.70
2018-11-28T17:57:22.272Z,14.60
2018-11-28T17:59:57.308Z,14.20
2018-11-28T18:02:32.341Z,14.70
2018-11-28T18:05:06.351Z,12.90
2018-11-28T18:07:41.382Z,22.70
2018-11-28T18:10:20.308Z,22.33
2018-11-28T18:13:12.479Z,13.73
2018-11-28T18:16:01.298Z,13.07
2018-11-28T18:18:36.336Z,14.17
2018-11-28T18:21:14.233Z,14.20
2018-11-28T18:23:49.268Z,13.67
2018-11-28T18:26:23.481Z,13.17
2018-11-28T18:28:58.309Z,12.57
2018-11-28T18:31:33.340Z,15.50
2018-11-28T18:34:08.374Z,17.53
2018-11-28T18:36:46.282Z,18.50
2018-11-28T18:39:21.310Z,18.00
2018-11-28T18:41:57.368Z,19.27
2018-11-28T18:44:32.402Z,14.00
2018-11-28T18:47:07.435Z,14.90
2018-11-28T18:49:48.209Z,13.50
2018-11-28T18:52:23.643Z,12.97
2018-11-28T18:55:00.320Z,12.90
2018-11-28T18:57:35.350Z,16.17
2018-11-28T19:00:12.432Z,13.13
2018-11-28T19:02:47.260Z,13.83
2018-11-28T19:05:23.527Z,18.40
2018-11-28T19:07:59.375Z,16.20
2018-11-28T19:10:34.417Z,13.33
2018-11-28T19:13:10.679Z,14.93
2018-11-28T19:15:46.319Z,13.57
2018-11-28T19:18:20.331Z,14.03
2018-11-28T19:20:54.337Z,18.90
2018-11-28T19:23:28.347Z,14.50
2018-11-28T19:26:03.381Z,15.03
2018-11-28T19:28:38.414Z,15.83
2018-11-28T19:31:14.881Z,14.10
2018-11-28T19:33:49.715Z,12.70
2018-11-28T19:36:25.360Z,12.10
2018-11-28T19:39:00.803Z,14.10
2018-11-28T19:41:35.221Z,11.93
2018-11-28T19:44:14.353Z,11.70
2018-11-28T19:46:54.504Z,12.73
2018-11-28T19:49:30.564Z,12.07
2018-11-28T19:52:08.466Z,13.20
2018-11-28T20:11:59.375Z,12.30
2018-11-28T20:14:35.432Z,10.57
2018-11-28T20:17:09.237Z,11.83
2018-11-28T20:37:03.629Z,12.33
2018-11-28T20:39:45.631Z,12.80
2018-11-28T20:59:38.412Z,14.57
2018-11-28T21:02:10.549Z,13.23
2018-11-28T21:04:44.556Z,15.60
2018-11-28T21:07:20.410Z,15.40
2018-11-28T21:09:56.471Z,12.93
2018-11-28T21:29:49.630Z,13.73
2018-11-28T21:32:23.848Z,13.37
2018-11-28T21:34:59.494Z,14.23
2018-11-28T21:37:36.573Z,14.43
2018-11-28T21:40:12.634Z,12.77
2018-11-28T22:00:06.616Z,17.80
2018-11-28T22:02:42.262Z,13.33
2018-11-28T22:05:18.525Z,12.67
2018-11-28T22:07:54.584Z,16.00
2018-11-28T22:10:33.509Z,16.27
2018-11-28T22:30:27.491Z,12.27
2018-11-28T22:33:03.551Z,12.87
2018-11-28T22:52:56.709Z,13.80
2018-11-28T22:55:30.928Z,13.53
2018-11-28T22:58:03.708Z,13.17
2018-11-28T23:17:55.649Z,13.57
2018-11-28T23:20:29.653Z,13.43
2018-11-28T23:44:21.612Z,12.27
2018-11-28T23:46:55.619Z,11.93
2018-11-28T23:49:30.125Z,12.30
2018-11-28T23:52:04.869Z,12.53
